createdAt,value
2019-05-02T00:00:45.116Z,55.17
2019-05-02T00:03:14.878Z,53.90
2019-05-02T00:05:44.595Z,52.33
2019-05-02T00:08:14.908Z,56.10
2019-05-02T00:10:45.972Z,54.70
2019-05-02T00:13:15.398Z,53.07
2019-05-02T00:15:44.834Z,57.40
2019-05-02T00:18:14.530Z,57.53
2019-05-02T00:20:43.985Z,50.70
2019-05-02T00:23:13.850Z,52.20
2019-05-02T00:25:47.311Z,49.77
2019-05-02T00:28:14.340Z,51.73
2019-05-02T00:30:44.390Z,50.70
2019-05-02T00:33:13.875Z,59.47
2019-05-02T00:35:46.188Z,54.03
2019-05-02T00:38:14.511Z,52.73
2019-05-02T00:40:46.343Z,52.10
2019-05-02T00:43:15.372Z,53.43
2019-05-02T00:45:44.816Z,53.93
2019-05-02T00:48:19.237Z,51.83
2019-05-02T00:50:50.843Z,54.83
2019-05-02T00:53:20.790Z,53.33
2019-05-02T00:55:50.230Z,54.63
2019-05-02T00:58:19.584Z,53.60
2019-05-02T01:01:06.661Z,57.73
2019-05-02T01:03:37.677Z,50.20
2019-05-02T01:06:13.966Z,60.73
2019-05-02T01:08:38.268Z,55.50
2019-05-02T01:11:07.637Z,56.83
2019-05-02T01:13:36.991Z,55.20
2019-05-02T01:16:06.364Z,51.13
2019-05-02T01:18:37.121Z,58.37
2019-05-02T01:21:26.474Z,57.83
2019-05-02T01:23:58.853Z,57.60
2019-05-02T01:26:29.264Z,58.17
2019-05-02T01:29:04.086Z,59.23
2019-05-02T01:31:37.747Z,55.90
2019-05-02T01:34:18.109Z,59.07
2019-05-02T01:36:55.663Z,56.63
2019-05-02T01:39:25.374Z,58.57
2019-05-02T01:41:54.831Z,63.23
2019-05-02T01:44:24.201Z,59.53
2019-05-02T01:46:54.115Z,57.67
2019-05-02T01:49:24.624Z,53.70
2019-05-02T01:51:54.121Z,58.43
2019-05-02T01:54:23.473Z,64.00
2019-05-02T01:56:52.971Z,57.83
2019-05-02T01:59:22.323Z,55.83
2019-05-02T02:01:53.218Z,53.47
2019-05-02T02:04:22.806Z,53.70
2019-05-02T02:06:52.194Z,58.53
2019-05-02T02:09:21.626Z,56.90
2019-05-02T02:11:50.988Z,57.33
2019-05-02T02:14:20.416Z,62.83
2019-05-02T02:16:49.784Z,55.70
2019-05-02T02:19:20.824Z,61.53
2019-05-02T02:22:06.702Z,56.07
2019-05-02T02:24:38.451Z,58.83
2019-05-02T02:27:07.912Z,58.33
2019-05-02T02:29:38.943Z,57.60
2019-05-02T02:32:08.503Z,65.23
2019-05-02T02:34:37.875Z,59.80
2019-05-02T02:37:12.597Z,57.33
2019-05-02T02:39:38.314Z,55.97
2019-05-02T02:42:07.679Z,60.17
2019-05-02T02:44:39.947Z,56.50
2019-05-02T02:47:12.217Z,56.47
2019-05-02T02:49:41.015Z,59.73
2019-05-02T02:52:10.395Z,58.30
2019-05-02T02:54:43.176Z,50.03
2019-05-02T02:57:21.870Z,55.77
2019-05-02T02:59:41.912Z,56.10
2019-05-02T03:02:12.179Z,60.63
2019-05-02T03:04:44.252Z,58.23
2019-05-02T03:07:24.587Z,58.03
2019-05-02T03:09:44.340Z,53.90
2019-05-02T03:12:21.625Z,57.30
2019-05-02T03:14:58.885Z,63.47
2019-05-02T03:17:28.960Z,57.17
2019-05-02T03:20:01.387Z,60.40
2019-05-02T03:22:34.855Z,61.53
2019-05-02T03:25:00.649Z,57.10
2019-05-02T03:27:37.468Z,59.80
2019-05-02T03:30:01.359Z,61.47
2019-05-02T03:32:35.041Z,53.70
2019-05-02T03:35:02.282Z,60.40
2019-05-02T03:37:32.231Z,55.53
2019-05-02T03:40:01.625Z,59.50
2019-05-02T03:42:43.828Z,57.27
2019-05-02T03:45:04.979Z,58.37
2019-05-02T03:47:36.812Z,60.90
2019-05-02T03:50:09.458Z,63.17
2019-05-02T03:52:43.791Z,64.23
2019-05-02T03:55:10.069Z,64.47
2019-05-02T03:57:42.237Z,64.27
2019-05-02T04:00:30.071Z,65.97
2019-05-02T04:03:02.142Z,64.80
2019-05-02T04:05:33.788Z,57.43
2019-05-02T04:08:02.170Z,63.23
2019-05-02T04:10:52.746Z,62.87
2019-05-02T04:13:18.006Z,66.10
2019-05-02T04:15:47.700Z,62.30
2019-05-02T04:18:17.966Z,69.57
2019-05-02T04:20:49.541Z,57.10
2019-05-02T04:23:21.179Z,61.13
2019-05-02T04:25:50.437Z,68.00
2019-05-02T04:28:21.443Z,73.07
2019-05-02T04:30:51.808Z,70.90
2019-05-02T04:33:21.936Z,60.37
2019-05-02T04:35:51.359Z,65.60
2019-05-02T04:38:30.991Z,65.53
2019-05-02T04:40:52.004Z,64.47
2019-05-02T04:43:21.389Z,63.53
2019-05-02T04:45:56.176Z,68.10
2019-05-02T04:48:21.974Z,62.57
2019-05-02T04:50:51.756Z,70.97
2019-05-02T04:53:25.196Z,67.00
2019-05-02T04:56:01.556Z,64.17
2019-05-02T04:58:27.655Z,74.83
2019-05-02T05:01:00.992Z,72.87
2019-05-02T05:03:25.729Z,75.27
2019-05-02T05:05:59.460Z,78.90
2019-05-02T05:08:31.715Z,79.13
2019-05-02T05:10:58.101Z,80.43
2019-05-02T05:13:29.093Z,77.10
2019-05-02T05:15:58.604Z,83.07
2019-05-02T05:18:28.019Z,83.97
2019-05-02T05:20:57.786Z,91.80
2019-05-02T05:23:34.953Z,88.57
2019-05-02T05:26:04.809Z,87.37
2019-05-02T05:28:35.057Z,88.47
2019-05-02T05:31:07.529Z,88.93
2019-05-02T05:33:37.746Z,80.40
2019-05-02T05:36:08.242Z,88.63
2019-05-02T05:38:40.429Z,89.73
2019-05-02T05:41:13.173Z,87.03
2019-05-02T05:43:40.197Z,85.63
2019-05-02T05:46:13.165Z,93.53
2019-05-02T05:48:42.402Z,81.27
2019-05-02T05:51:16.051Z,82.47
2019-05-02T05:53:42.839Z,91.43
2019-05-02T05:56:12.194Z,83.57
2019-05-02T05:58:48.061Z,96.77
2019-05-02T06:01:12.627Z,87.60
2019-05-02T06:03:44.713Z,88.03
2019-05-02T06:06:14.837Z,91.47
2019-05-02T06:08:44.131Z,88.83
2019-05-02T06:11:14.817Z,85.40
2019-05-02T06:13:48.783Z,86.50
2019-05-02T06:16:16.658Z,88.67
2019-05-02T06:18:46.415Z,86.10
2019-05-02T06:21:17.188Z,86.77
2019-05-02T06:23:47.270Z,80.30
2019-05-02T06:26:16.686Z,83.93
2019-05-02T06:28:46.162Z,84.13
2019-05-02T06:31:17.234Z,82.93
2019-05-02T06:33:46.658Z,85.53
2019-05-02T06:36:16.083Z,84.07
2019-05-02T06:38:45.558Z,85.47
2019-05-02T06:41:16.225Z,88.37
2019-05-02T06:43:46.733Z,83.57
2019-05-02T06:46:21.675Z,88.57
2019-05-02T06:48:52.281Z,86.90
2019-05-02T06:51:20.861Z,85.30
2019-05-02T06:53:50.458Z,86.73
2019-05-02T06:56:20.079Z,87.07
2019-05-02T06:58:49.455Z,89.20
2019-05-02T07:01:21.131Z,88.00
2019-05-02T07:03:50.208Z,91.67
2019-05-02T07:06:19.827Z,95.23
2019-05-02T07:08:49.367Z,92.10
2019-05-02T07:11:18.787Z,91.60
2019-05-02T07:13:48.180Z,90.97
2019-05-02T07:16:37.600Z,87.07
2019-05-02T07:19:16.485Z,88.47
2019-05-02T07:21:45.315Z,93.33
2019-05-02T07:24:14.791Z,94.57
2019-05-02T07:26:44.211Z,93.03
2019-05-02T07:29:17.064Z,94.87
2019-05-02T07:31:47.790Z,85.63
2019-05-02T07:34:15.840Z,85.17
2019-05-02T07:36:45.212Z,93.93
2019-05-02T07:39:14.656Z,93.17
2019-05-02T07:41:44.090Z,91.27
2019-05-02T07:44:13.734Z,84.60
2019-05-02T07:46:51.708Z,88.83
2019-05-02T07:49:14.390Z,91.43
2019-05-02T07:51:43.811Z,90.30
2019-05-02T07:54:13.319Z,85.60
2019-05-02T07:56:42.771Z,89.80
2019-05-02T07:59:12.214Z,86.67
2019-05-02T08:01:44.879Z,91.30
2019-05-02T08:04:13.026Z,89.07
2019-05-02T08:06:44.672Z,82.57
2019-05-02T08:09:14.651Z,79.80
2019-05-02T08:11:44.076Z,80.20
2019-05-02T08:14:13.453Z,78.87
2019-05-02T08:16:42.795Z,78.77
2019-05-02T08:19:12.142Z,76.43
2019-05-02T08:21:41.507Z,77.07
2019-05-02T08:24:10.866Z,77.90
2019-05-02T08:26:59.871Z,77.37
2019-05-02T08:29:30.772Z,77.70
2019-05-02T08:32:00.392Z,73.37
2019-05-02T08:34:31.459Z,79.87
2019-05-02T08:37:03.415Z,73.53
2019-05-02T08:39:33.954Z,76.50
2019-05-02T08:42:04.150Z,71.43
2019-05-02T08:44:33.503Z,71.73
2019-05-02T08:47:02.961Z,72.93
2019-05-02T08:49:32.393Z,74.33
2019-05-02T08:52:01.756Z,68.70
2019-05-02T08:54:32.910Z,73.77
2019-05-02T08:57:02.468Z,70.50
2019-05-02T08:59:31.841Z,72.83
2019-05-02T09:02:01.289Z,70.80
2019-05-02T09:04:30.814Z,71.50
2019-05-02T09:07:00.748Z,69.23
2019-05-02T09:09:30.508Z,71.57
2019-05-02T09:12:09.753Z,69.87
2019-05-02T09:14:32.192Z,66.73
2019-05-02T09:17:08.467Z,69.23
2019-05-02T09:19:34.818Z,64.77
2019-05-02T09:22:07.700Z,69.13
2019-05-02T09:24:35.226Z,62.07
2019-05-02T09:27:04.814Z,69.17
2019-05-02T09:29:37.399Z,63.30
2019-05-02T09:32:05.424Z,61.00
2019-05-02T09:34:34.780Z,56.97
2019-05-02T09:37:04.286Z,61.23
2019-05-02T09:39:36.551Z,55.50
2019-05-02T09:42:06.585Z,55.93
2019-05-02T09:44:35.999Z,62.70
2019-05-02T09:47:05.427Z,57.80
2019-05-02T09:49:34.780Z,61.43
2019-05-02T09:52:04.500Z,61.87
2019-05-02T09:54:36.941Z,52.93
2019-05-02T09:57:05.247Z,60.87
2019-05-02T09:59:34.815Z,57.50
2019-05-02T10:02:05.196Z,62.40
2019-05-02T10:04:34.552Z,54.07
2019-05-02T10:07:04.299Z,56.67
2019-05-02T10:09:33.715Z,51.27
2019-05-02T10:12:03.084Z,47.07
2019-05-02T10:14:33.153Z,50.23
2019-05-02T10:17:06.988Z,52.07
2019-05-02T10:19:33.834Z,52.23
2019-05-02T10:22:03.297Z,54.20
2019-05-02T10:24:32.726Z,50.07
2019-05-02T10:27:08.237Z,50.37
2019-05-02T10:29:33.303Z,51.10
2019-05-02T10:32:07.512Z,50.83
2019-05-02T10:34:34.725Z,53.60
2019-05-02T10:37:04.170Z,49.67
2019-05-02T10:39:37.679Z,47.17
2019-05-02T10:42:04.863Z,49.10
2019-05-02T10:44:36.538Z,50.70
2019-05-02T10:47:05.467Z,48.67
2019-05-02T10:49:36.455Z,49.20
2019-05-02T10:52:06.304Z,52.00
2019-05-02T10:54:37.457Z,49.70
2019-05-02T10:57:06.778Z,58.60
2019-05-02T10:59:36.132Z,50.13
2019-05-02T11:02:19.195Z,54.43
2019-05-02T11:05:02.750Z,53.17
2019-05-02T11:07:32.672Z,48.00
2019-05-02T11:10:06.538Z,48.23
2019-05-02T11:12:46.495Z,47.10
2019-05-02T11:15:23.387Z,47.60
2019-05-02T11:17:52.995Z,48.33
2019-05-02T11:20:22.515Z,45.97
2019-05-02T11:22:52.646Z,45.90
2019-05-02T11:25:22.987Z,47.40
2019-05-02T11:27:52.615Z,46.43
2019-05-02T11:30:26.404Z,41.23
2019-05-02T11:32:53.409Z,43.00
2019-05-02T11:35:22.915Z,37.33
2019-05-02T11:37:52.291Z,40.43
2019-05-02T11:40:22.759Z,38.00
2019-05-02T11:42:52.321Z,39.67
2019-05-02T11:45:22.694Z,32.50
2019-05-02T11:47:54.457Z,27.43
2019-05-02T11:50:26.711Z,20.20
2019-05-02T11:52:54.383Z,22.77
2019-05-02T11:55:28.837Z,20.63
2019-05-02T11:57:55.095Z,16.67
2019-05-02T12:00:24.541Z,19.03
2019-05-02T12:03:12.682Z,16.60
2019-05-02T12:05:43.201Z,18.73
2019-05-02T12:08:12.567Z,14.47
2019-05-02T12:10:42.378Z,14.13
2019-05-02T12:13:16.042Z,17.50
2019-05-02T12:15:44.373Z,13.40
2019-05-02T12:18:13.863Z,16.07
2019-05-02T12:20:43.303Z,18.97
2019-05-02T12:23:13.084Z,15.57
2019-05-02T12:25:42.632Z,20.07
2019-05-02T12:28:12.212Z,21.20
2019-05-02T12:30:42.017Z,19.40
2019-05-02T12:33:12.489Z,20.47
2019-05-02T12:35:43.256Z,17.20
2019-05-02T12:38:13.115Z,19.87
2019-05-02T12:40:42.772Z,20.70
2019-05-02T12:43:12.252Z,18.03
2019-05-02T12:45:42.295Z,14.97
2019-05-02T12:48:12.989Z,19.53
2019-05-02T12:50:42.639Z,17.83
2019-05-02T12:53:12.613Z,17.47
2019-05-02T12:55:42.364Z,18.57
2019-05-02T12:58:12.538Z,16.53
2019-05-02T13:00:43.055Z,17.33
2019-05-02T13:03:31.748Z,17.70
2019-05-02T13:06:03.053Z,19.40
2019-05-02T13:08:34.481Z,23.23
2019-05-02T13:11:17.574Z,21.03
2019-05-02T13:13:47.224Z,20.77
2019-05-02T13:16:16.612Z,21.27
2019-05-02T13:18:46.046Z,19.73
2019-05-02T13:21:17.190Z,20.27
2019-05-02T13:23:48.282Z,23.53
2019-05-02T13:26:21.883Z,20.70
2019-05-02T13:28:49.075Z,20.60
2019-05-02T13:31:36.179Z,21.43
2019-05-02T13:34:19.400Z,25.03
2019-05-02T13:36:51.927Z,17.97
2019-05-02T13:39:35.562Z,22.03
2019-05-02T13:42:05.239Z,21.30
2019-05-02T13:44:36.321Z,20.70
2019-05-02T13:47:07.718Z,20.20
2019-05-02T13:49:50.583Z,23.40
2019-05-02T13:52:08.424Z,22.50
2019-05-02T13:54:38.642Z,22.10
2019-05-02T13:57:08.265Z,21.83
2019-05-02T13:59:37.677Z,21.07
2019-05-02T14:02:07.646Z,18.87
2019-05-02T14:04:37.036Z,28.07
2019-05-02T14:07:07.670Z,22.33
2019-05-02T14:09:44.849Z,24.03
2019-05-02T14:12:21.876Z,22.27
2019-05-02T14:14:51.952Z,21.00
2019-05-02T14:17:22.969Z,19.07
2019-05-02T14:20:01.186Z,19.37
2019-05-02T14:22:23.688Z,17.27
2019-05-02T14:24:53.234Z,16.97
2019-05-02T14:27:22.576Z,16.63
2019-05-02T14:29:52.520Z,20.47
2019-05-02T14:32:26.328Z,15.87
2019-05-02T14:34:57.581Z,17.40
2019-05-02T14:37:27.043Z,17.27
2019-05-02T14:39:58.052Z,19.87
2019-05-02T14:42:27.578Z,20.67
2019-05-02T14:45:08.944Z,22.53
2019-05-02T14:47:27.992Z,26.77
2019-05-02T14:50:02.193Z,26.53
2019-05-02T14:52:28.587Z,24.83
2019-05-02T14:54:58.117Z,23.73
2019-05-02T14:57:27.504Z,25.03
2019-05-02T14:59:59.674Z,21.73
2019-05-02T15:02:39.238Z,24.63
2019-05-02T15:05:07.195Z,22.57
2019-05-02T15:07:38.476Z,23.70
2019-05-02T15:10:08.272Z,21.70
2019-05-02T15:12:37.647Z,21.93
2019-05-02T15:15:08.420Z,24.30
2019-05-02T15:17:38.020Z,22.17
2019-05-02T15:20:09.391Z,20.73
2019-05-02T15:22:38.840Z,22.10
2019-05-02T15:25:13.673Z,22.53
2019-05-02T15:27:42.535Z,21.47
2019-05-02T15:30:11.292Z,26.77
2019-05-02T15:32:47.961Z,23.97
2019-05-02T15:35:28.116Z,20.53
2019-05-02T15:38:02.565Z,24.63
2019-05-02T15:43:04.541Z,21.13
2019-05-02T15:45:31.729Z,21.53
2019-05-02T15:48:02.640Z,25.40
2019-05-02T15:50:32.692Z,24.70
2019-05-02T15:53:09.811Z,22.73
2019-05-02T15:55:39.548Z,19.40
2019-05-02T15:58:07.638Z,21.57
2019-05-02T16:00:38.724Z,18.00
2019-05-02T16:03:08.225Z,19.70
2019-05-02T16:05:41.184Z,19.33
2019-05-02T16:08:09.157Z,25.40
2019-05-02T16:10:39.961Z,18.17
2019-05-02T16:13:13.481Z,20.57
2019-05-02T16:15:42.826Z,20.17
2019-05-02T16:18:12.814Z,16.67
2019-05-02T16:21:04.709Z,16.00
2019-05-02T16:23:31.855Z,16.27
2019-05-02T16:25:57.005Z,19.03
2019-05-02T16:28:26.652Z,17.43
2019-05-02T16:30:57.687Z,17.83
2019-05-02T16:33:27.081Z,17.50
2019-05-02T16:35:56.787Z,17.10
2019-05-02T16:38:26.923Z,16.40
2019-05-02T16:40:57.247Z,13.90
2019-05-02T16:43:28.349Z,14.83
2019-05-02T16:46:01.640Z,17.43
2019-05-02T16:48:37.403Z,14.70
2019-05-02T16:51:02.233Z,14.67
2019-05-02T16:53:33.349Z,14.83
2019-05-02T16:56:06.044Z,14.43
2019-05-02T16:58:38.035Z,14.73
2019-05-02T17:01:06.131Z,14.17
2019-05-02T17:03:35.559Z,14.50
2019-05-02T17:06:05.389Z,13.70
2019-05-02T17:08:44.457Z,14.63
2019-05-02T17:11:15.804Z,15.37
2019-05-02T17:13:45.335Z,12.53
2019-05-02T17:16:17.092Z,15.23
2019-05-02T17:18:48.314Z,14.07
2019-05-02T17:21:16.986Z,13.37
2019-05-02T17:23:48.381Z,11.80
2019-05-02T17:26:17.422Z,12.77
2019-05-02T17:28:47.184Z,11.57
2019-05-02T17:31:20.536Z,11.60
2019-05-02T17:33:51.072Z,11.87
2019-05-02T17:36:23.360Z,10.70
2019-05-02T17:38:53.790Z,11.93
2019-05-02T17:41:22.603Z,10.90
2019-05-02T17:43:52.268Z,9.63
2019-05-02T17:46:25.709Z,10.87
2019-05-02T17:48:53.890Z,10.10
2019-05-02T17:51:28.400Z,9.27
2019-05-02T17:53:56.269Z,9.40
2019-05-02T17:56:25.723Z,10.40
2019-05-02T17:58:58.351Z,10.50
2019-05-02T18:01:33.330Z,9.53
2019-05-02T18:04:01.940Z,9.77
2019-05-02T18:06:35.331Z,9.87
2019-05-02T18:09:03.704Z,9.90
2019-05-02T18:11:36.485Z,9.87
2019-05-02T18:14:10.306Z,9.30
2019-05-02T18:16:35.464Z,9.30
2019-05-02T18:19:05.095Z,9.20
2019-05-02T18:21:34.518Z,8.13
2019-05-02T18:24:06.049Z,9.83
2019-05-02T18:26:35.476Z,8.60
2019-05-02T18:29:06.870Z,9.33
2019-05-02T18:31:40.093Z,10.83
2019-05-02T18:34:07.217Z,9.10
2019-05-02T18:36:36.703Z,10.07
2019-05-02T18:39:08.071Z,10.27
2019-05-02T18:41:44.796Z,11.37
2019-05-02T18:44:08.662Z,11.10
2019-05-02T18:46:41.619Z,10.03
2019-05-02T18:49:09.355Z,11.17
2019-05-02T18:51:38.798Z,11.10
2019-05-02T18:54:08.263Z,13.27
2019-05-02T18:56:44.232Z,12.47
2019-05-02T18:59:08.887Z,15.07
2019-05-02T19:01:38.391Z,15.83
2019-05-02T19:04:07.899Z,15.90
2019-05-02T19:06:37.376Z,13.30
2019-05-02T19:09:09.967Z,12.63
2019-05-02T19:11:39.325Z,13.73
2019-05-02T19:14:08.777Z,12.57
2019-05-02T19:16:38.289Z,14.97
2019-05-02T19:19:07.640Z,9.53
2019-05-02T19:21:39.469Z,9.80
2019-05-02T19:24:08.452Z,9.23
2019-05-02T19:26:42.842Z,10.37
2019-05-02T19:29:17.106Z,6.80
2019-05-02T19:31:46.296Z,6.23
2019-05-02T19:34:16.722Z,5.50
2019-05-02T19:36:47.083Z,5.57
2019-05-02T19:39:16.570Z,6.00
2019-05-02T19:41:45.937Z,6.13
2019-05-02T19:44:15.526Z,7.03
2019-05-02T19:46:45.172Z,5.67
2019-05-02T19:49:16.297Z,5.87
2019-05-02T19:51:50.638Z,6.50
2019-05-02T19:54:16.971Z,5.57
2019-05-02T19:56:47.627Z,5.73
2019-05-02T19:59:24.631Z,6.70
2019-05-02T20:01:48.367Z,6.10
2019-05-02T20:04:17.916Z,14.33
2019-05-02T20:06:47.407Z,5.17
2019-05-02T20:09:16.842Z,6.17
2019-05-02T20:11:46.640Z,6.00
2019-05-02T20:14:16.135Z,6.07
2019-05-02T20:16:49.655Z,6.10
2019-05-02T20:19:25.361Z,5.73
2019-05-02T20:21:52.105Z,5.47
2019-05-02T20:24:22.690Z,6.20
2019-05-02T20:26:55.983Z,5.00
2019-05-02T20:29:23.440Z,5.17
2019-05-02T20:31:52.876Z,5.37
2019-05-02T20:34:22.393Z,5.10
2019-05-02T20:36:51.907Z,5.77
2019-05-02T20:39:22.454Z,6.13
2019-05-02T20:41:53.033Z,6.20
2019-05-02T20:44:22.589Z,5.77
2019-05-02T20:46:52.055Z,5.93
2019-05-02T20:49:21.496Z,6.00
2019-05-02T20:51:51.860Z,5.97
2019-05-02T20:54:21.266Z,6.87
2019-05-02T20:56:51.996Z,7.03
2019-05-02T20:59:21.907Z,5.53
2019-05-02T21:01:52.284Z,6.33
2019-05-02T21:04:22.840Z,6.67
2019-05-02T21:06:56.654Z,6.93
2019-05-02T21:09:42.443Z,8.47
2019-05-02T21:12:12.612Z,5.97
2019-05-02T21:14:42.219Z,6.73
2019-05-02T21:17:12.795Z,6.30
2019-05-02T21:19:42.275Z,5.80
2019-05-02T21:22:14.827Z,5.50
2019-05-02T21:24:44.370Z,5.97
2019-05-02T21:27:13.901Z,6.77
2019-05-02T21:29:43.256Z,6.17
2019-05-02T21:32:12.674Z,6.07
2019-05-02T21:34:42.479Z,6.87
2019-05-02T21:37:12.037Z,5.90
2019-05-02T21:39:42.522Z,6.87
2019-05-02T21:42:12.098Z,5.73
2019-05-02T21:44:42.230Z,6.00
2019-05-02T21:47:11.715Z,7.00
2019-05-02T21:49:43.075Z,5.33
2019-05-02T21:52:14.199Z,6.13
2019-05-02T21:54:45.268Z,6.83
2019-05-02T21:57:16.263Z,6.00
2019-05-02T21:59:45.615Z,5.67
2019-05-02T22:02:15.959Z,5.63
2019-05-02T22:04:45.335Z,5.90
2019-05-02T22:07:15.110Z,5.17
2019-05-02T22:09:44.539Z,5.03
2019-05-02T22:12:13.895Z,4.70
2019-05-02T22:14:43.236Z,5.27
2019-05-02T22:17:12.822Z,5.10
2019-05-02T22:19:42.236Z,5.33
2019-05-02T22:22:12.220Z,6.13
2019-05-02T22:24:42.116Z,4.80
2019-05-02T22:27:12.377Z,4.03
2019-05-02T22:29:42.999Z,4.70
2019-05-02T22:32:12.846Z,5.10
2019-05-02T22:34:42.633Z,5.73
2019-05-02T22:37:15.055Z,6.30
2019-05-02T22:39:52.026Z,6.17
2019-05-02T22:42:21.933Z,7.63
2019-05-02T22:44:51.567Z,6.97
2019-05-02T22:47:22.721Z,6.57
2019-05-02T22:49:52.361Z,6.43
2019-05-02T22:52:21.923Z,6.03
2019-05-02T22:54:52.347Z,6.33
2019-05-02T22:57:22.540Z,6.17
2019-05-02T22:59:52.254Z,7.50
2019-05-02T23:02:22.061Z,8.23
2019-05-02T23:04:52.570Z,9.93
2019-05-02T23:07:22.670Z,8.50
2019-05-02T23:09:52.789Z,9.50
2019-05-02T23:12:24.928Z,9.50
2019-05-02T23:14:53.659Z,9.77
2019-05-02T23:17:23.266Z,12.20
2019-05-02T23:19:53.099Z,11.57
2019-05-02T23:22:22.565Z,10.03
2019-05-02T23:24:53.638Z,10.77
2019-05-02T23:27:24.648Z,11.33
2019-05-02T23:29:54.191Z,9.93
2019-05-02T23:32:23.826Z,11.50
2019-05-02T23:34:53.446Z,10.63
2019-05-02T23:37:22.892Z,12.43
2019-05-02T23:39:52.365Z,10.73
2019-05-02T23:42:21.996Z,12.20
2019-05-02T23:44:51.909Z,9.20
2019-05-02T23:47:22.458Z,11.60
2019-05-02T23:49:52.153Z,9.43
2019-05-02T23:52:22.500Z,9.70
2019-05-02T23:54:52.694Z,9.07
2019-05-02T23:57:22.964Z,10.27
2019-05-02T23:59:52.518Z,8.83
